Ambleve, Belgium
Current Conditions -  °F | °C
As of 7:25 PM on Saturday 20 Dec 2014 (Local Time) from EBLB Reporting Station
Broken Clouds Broken Clouds  
Wind Chill: 28°   Ceiling: 1700
Heat Index: 37°   Visibility: 1.1mi
Dew Point: 34°   Wind: 16mph
Humidity: 87%   Direction: 290°WNW
Pressure: 30.24"   Gusts: NA
Location:  50.35°N, 6.17°E
Report Text: EBLB 201825Z AUTO 29014KT 1900 FEW009/// SCT013/// BKN017/// 03/01 Q1024 YLO
Loading
Personal Weather Stations






























Interactive Weather Map New forecast layout! Learn more

10-Day Weather Forecast

Advertisements
Track Severe Weather on mobile